Weather Data

Pearl Creek Farm: 8878 N Farm Road 75, Walnut Grove MO 65770

<== Previous Day (Sunday 20 Mar 2011) | Next Day (Tuesday 22 Mar 2011) ==>

Summary Precipitation Data For Monday 21 March 2011

ElementValueUnits
Precipitation0"
Notes(none)
SourcePearl Creek Farm

Summary Temperature Data For Monday 21 March 2011

ElementValueUnits
High Temperature79 oF
Low Temperature57 oF
Average Temperature67 oF
High Humidity82 %
Low Humidity57 %
Average Humidity72 %
SourcePearl Creek Farm

Detail Temperature Data For Monday 21 March 2011

Date / TimeTemp (F)RH (%)Dew Pt (F)Report Date / TimeSource
2011-03-21 00:00:00 62 70 51.9 2011-05-13 22:19:16 Pearl Creek Farm
2011-03-21 00:30:00 62 71 52.3 2011-05-13 22:19:16 Pearl Creek Farm
2011-03-21 01:00:00 61 72 51.9 2011-05-13 22:19:16 Pearl Creek Farm
2011-03-21 01:30:00 60 74 51.7 2011-05-13 22:19:16 Pearl Creek Farm
2011-03-21 02:00:00 59 77 51.6 2011-05-13 22:19:16 Pearl Creek Farm
2011-03-21 02:30:00 57 78 50.2 2011-05-13 22:19:16 Pearl Creek Farm
2011-03-21 03:00:00 57 79 50.6 2011-05-13 22:19:16 Pearl Creek Farm
2011-03-21 03:30:00 58 79 51.5 2011-05-13 22:19:16 Pearl Creek Farm
2011-03-21 04:00:00 59 79 52.3 2011-05-13 22:19:16 Pearl Creek Farm
2011-03-21 04:30:00 58 81 52.0 2011-05-13 22:19:16 Pearl Creek Farm
2011-03-21 05:00:00 58 80 51.9 2011-05-13 22:19:16 Pearl Creek Farm
2011-03-21 05:30:00 57 82 51.4 2011-05-13 22:19:16 Pearl Creek Farm
2011-03-21 06:00:00 58 82 52.5 2011-05-13 22:19:16 Pearl Creek Farm
2011-03-21 06:30:00 59 82 53.5 2011-05-13 22:19:16 Pearl Creek Farm
2011-03-21 07:00:00 59 81 53.0 2011-05-13 22:19:16 Pearl Creek Farm
2011-03-21 07:30:00 59 81 53.0 2011-05-13 22:19:16 Pearl Creek Farm
2011-03-21 08:00:00 59 81 53.2 2011-05-13 22:19:16 Pearl Creek Farm
2011-03-21 08:30:00 60 81 54.2 2011-05-13 22:19:16 Pearl Creek Farm
2011-03-21 09:00:00 60 80 53.8 2011-05-13 22:19:16 Pearl Creek Farm
2011-03-21 09:30:00 61 80 54.8 2011-05-13 22:19:16 Pearl Creek Farm
2011-03-21 10:00:00 62 76 54.4 2011-05-13 22:19:16 Pearl Creek Farm
2011-03-21 10:30:00 64 74 55.6 2011-05-13 22:19:16 Pearl Creek Farm
2011-03-21 11:00:00 66 72 56.7 2011-05-13 22:19:16 Pearl Creek Farm
2011-03-21 11:30:00 68 70 57.7 2011-05-13 22:19:16 Pearl Creek Farm
2011-03-21 12:00:00 70 69 59.4 2011-05-13 22:19:16 Pearl Creek Farm
2011-03-21 12:30:00 72 67 60.2 2011-05-13 22:19:16 Pearl Creek Farm
2011-03-21 13:00:00 73 66 61.0 2011-05-13 22:19:16 Pearl Creek Farm
2011-03-21 13:30:00 74 64 61.1 2011-05-13 22:19:16 Pearl Creek Farm
2011-03-21 14:00:00 75 64 61.8 2011-05-13 22:19:16 Pearl Creek Farm
2011-03-21 14:30:00 76 60 61.1 2011-05-13 22:19:16 Pearl Creek Farm
2011-03-21 15:00:00 77 59 61.3 2011-05-13 22:19:16 Pearl Creek Farm
2011-03-21 15:30:00 78 60 62.8 2011-05-13 22:19:16 Pearl Creek Farm
2011-03-21 16:00:00 79 58 63.0 2011-05-13 22:19:16 Pearl Creek Farm
2011-03-21 16:30:00 79 57 62.2 2011-05-13 22:19:16 Pearl Creek Farm
2011-03-21 17:00:00 79 58 63.0 2011-05-13 22:19:16 Pearl Creek Farm
2011-03-21 17:30:00 79 57 62.2 2011-05-13 22:19:16 Pearl Creek Farm
2011-03-21 18:00:00 78 58 61.8 2011-05-13 22:19:16 Pearl Creek Farm
2011-03-21 18:30:00 76 61 61.3 2011-05-13 22:19:16 Pearl Creek Farm
2011-03-21 19:00:00 75 63 61.3 2011-05-13 22:19:16 Pearl Creek Farm
2011-03-21 19:30:00 74 67 62.1 2011-05-13 22:19:16 Pearl Creek Farm
2011-03-21 20:00:00 72 68 60.7 2011-05-13 22:19:16 Pearl Creek Farm
2011-03-21 20:30:00 69 71 59.0 2011-05-13 22:19:16 Pearl Creek Farm
2011-03-21 21:00:00 68 74 59.2 2011-05-13 22:19:16 Pearl Creek Farm
2011-03-21 21:30:00 68 73 59.0 2011-05-13 22:19:16 Pearl Creek Farm
2011-03-21 22:00:00 67 74 58.3 2011-05-13 22:19:16 Pearl Creek Farm
2011-03-21 22:30:00 66 76 58.0 2011-05-13 22:19:16 Pearl Creek Farm
2011-03-21 23:00:00 65 77 57.4 2011-05-13 22:19:16 Pearl Creek Farm
2011-03-21 23:30:00 64 78 57.0 2011-05-13 22:19:16 Pearl Creek Farm

A total of 48 rows are displayed.